createdAt,value
2022-12-09T00:02:17.371Z,27.53
2022-12-09T00:04:44.308Z,33.10
2022-12-09T00:07:11.205Z,31.47
2022-12-09T00:09:38.221Z,39.87
2022-12-09T00:12:05.151Z,30.67
2022-12-09T00:14:31.914Z,31.30
2022-12-09T00:16:58.867Z,31.50
2022-12-09T00:19:25.748Z,31.20
2022-12-09T00:21:52.597Z,32.10
2022-12-09T00:24:19.506Z,32.93
2022-12-09T00:26:46.460Z,38.67
2022-12-09T00:29:13.342Z,36.73
2022-12-09T00:31:40.243Z,33.90
2022-12-09T00:34:10.502Z,32.07
2022-12-09T00:36:37.374Z,31.93
2022-12-09T00:39:04.564Z,39.50
2022-12-09T00:41:31.422Z,35.63
2022-12-09T00:43:58.930Z,36.23
2022-12-09T00:46:26.102Z,38.80
2022-12-09T00:48:53.122Z,31.00
2022-12-09T00:51:22.435Z,31.83
2022-12-09T00:53:54.661Z,33.60
2022-12-09T00:56:28.326Z,33.13
2022-12-09T00:58:56.520Z,35.67
2022-12-09T01:01:24.380Z,35.87
2022-12-09T01:03:51.530Z,38.77
2022-12-09T01:06:21.571Z,34.97
2022-12-09T01:08:48.928Z,35.63
2022-12-09T01:11:27.939Z,39.13
2022-12-09T01:13:57.915Z,36.13
2022-12-09T01:16:27.499Z,33.10
2022-12-09T01:18:57.403Z,41.37
2022-12-09T01:21:24.672Z,36.63
2022-12-09T01:23:52.455Z,37.70
2022-12-09T01:26:19.326Z,31.63
2022-12-09T01:28:46.718Z,34.60
2022-12-09T01:31:18.706Z,44.13
2022-12-09T01:33:45.960Z,38.80
2022-12-09T01:36:18.909Z,37.00
2022-12-09T01:38:47.259Z,33.67
2022-12-09T01:41:16.007Z,33.07
2022-12-09T01:43:43.434Z,32.77
2022-12-09T01:46:10.556Z,37.50
2022-12-09T01:48:41.745Z,37.43
2022-12-09T01:51:13.094Z,37.83
2022-12-09T01:53:44.616Z,36.07
2022-12-09T01:56:28.264Z,31.73
2022-12-09T01:58:58.556Z,34.17
2022-12-09T02:01:25.580Z,37.63
2022-12-09T02:03:52.947Z,38.97
2022-12-09T02:06:20.341Z,33.47
2022-12-09T02:08:49.755Z,34.37
2022-12-09T02:11:23.027Z,34.63
2022-12-09T02:14:16.071Z,35.07
2022-12-09T02:16:56.377Z,41.30
2022-12-09T02:19:54.405Z,30.83
2022-12-09T02:22:26.784Z,31.43
2022-12-09T02:25:30.277Z,36.77
2022-12-09T02:28:28.362Z,36.20
2022-12-09T02:31:15.042Z,35.33
2022-12-09T02:34:11.195Z,32.07
2022-12-09T02:37:02.415Z,32.47
2022-12-09T02:39:59.344Z,33.20
2022-12-09T02:42:30.128Z,33.37
2022-12-09T02:44:58.947Z,34.53
2022-12-09T02:47:30.919Z,34.93
2022-12-09T02:50:02.126Z,37.90
2022-12-09T02:52:30.923Z,34.87
2022-12-09T02:55:00.892Z,36.53
2022-12-09T02:57:31.912Z,37.07
2022-12-09T02:59:58.926Z,29.50
2022-12-09T03:02:30.131Z,35.73
2022-12-09T03:05:19.089Z,27.17
2022-12-09T03:08:01.183Z,27.53
2022-12-09T03:10:49.504Z,28.63
2022-12-09T03:13:28.892Z,25.93
2022-12-09T03:16:03.806Z,30.80
2022-12-09T03:18:33.489Z,28.93
2022-12-09T03:21:01.558Z,27.53
2022-12-09T03:23:30.983Z,27.00
2022-12-09T03:26:00.279Z,23.73
2022-12-09T03:28:35.809Z,22.50
2022-12-09T03:31:06.863Z,27.03
2022-12-09T03:33:33.840Z,26.13
2022-12-09T03:36:04.832Z,19.77
2022-12-09T03:38:37.865Z,20.53
2022-12-09T03:41:17.257Z,23.10
2022-12-09T03:43:48.863Z,22.37
2022-12-09T03:46:15.827Z,22.73
2022-12-09T03:48:43.069Z,23.47
2022-12-09T03:51:18.896Z,30.10
2022-12-09T03:54:17.292Z,28.57
2022-12-09T03:56:47.464Z,20.33
2022-12-09T03:59:15.402Z,21.07
2022-12-09T04:01:44.693Z,23.10
2022-12-09T04:04:12.297Z,23.00
2022-12-09T04:06:39.581Z,21.40
2022-12-09T04:09:06.763Z,23.47
2022-12-09T04:11:34.396Z,19.40
2022-12-09T04:14:01.836Z,22.13
2022-12-09T04:16:29.022Z,17.07
2022-12-09T04:18:56.433Z,18.77
2022-12-09T04:21:23.417Z,18.93
2022-12-09T04:23:50.385Z,21.67
2022-12-09T04:26:21.214Z,18.07
2022-12-09T04:28:48.728Z,24.83
2022-12-09T04:31:17.538Z,23.83
2022-12-09T04:33:45.064Z,23.10
2022-12-09T04:36:15.866Z,18.30
2022-12-09T04:38:43.517Z,22.83
2022-12-09T04:41:11.729Z,21.13
2022-12-09T04:43:38.975Z,18.87
2022-12-09T04:46:08.441Z,23.40
2022-12-09T04:48:35.771Z,20.47
2022-12-09T04:51:03.204Z,32.00
2022-12-09T04:53:30.449Z,26.67
2022-12-09T04:56:02.124Z,21.33
2022-12-09T04:58:30.531Z,24.90
2022-12-09T05:00:58.156Z,19.50
2022-12-09T05:03:25.454Z,22.23
2022-12-09T05:05:52.675Z,19.33
2022-12-09T05:08:20.489Z,20.23
2022-12-09T05:10:49.932Z,22.53
2022-12-09T05:13:17.769Z,15.20
2022-12-09T05:15:44.701Z,17.53
2022-12-09T05:18:12.004Z,16.90
2022-12-09T05:20:40.611Z,16.43
2022-12-09T05:23:09.516Z,18.57
2022-12-09T05:25:37.835Z,15.87
2022-12-09T05:28:05.154Z,16.30
2022-12-09T05:30:32.435Z,19.47
2022-12-09T05:32:59.853Z,14.70
2022-12-09T05:35:26.793Z,15.43
2022-12-09T05:37:53.796Z,15.13
2022-12-09T05:40:21.124Z,18.57
2022-12-09T05:42:48.090Z,20.53
2022-12-09T05:45:16.142Z,16.47
2022-12-09T05:47:44.097Z,20.90
2022-12-09T05:50:12.109Z,18.07
2022-12-09T05:52:39.719Z,15.43
2022-12-09T05:55:08.765Z,19.30
2022-12-09T05:57:36.757Z,21.40
2022-12-09T06:00:07.298Z,15.10
2022-12-09T06:02:34.947Z,21.13
2022-12-09T06:05:03.230Z,21.87
2022-12-09T06:07:30.609Z,19.67
2022-12-09T06:09:58.238Z,20.13
2022-12-09T06:12:25.390Z,16.50
2022-12-09T06:14:52.749Z,19.80
2022-12-09T06:17:20.996Z,17.57
2022-12-09T06:19:48.353Z,20.00
2022-12-09T06:22:15.664Z,16.70
2022-12-09T06:24:42.752Z,17.20
2022-12-09T06:27:09.845Z,20.20
2022-12-09T06:29:37.189Z,16.67
2022-12-09T06:32:04.740Z,20.27
2022-12-09T06:34:32.066Z,19.30
2022-12-09T06:36:59.446Z,22.17
2022-12-09T06:39:26.799Z,17.17
2022-12-09T06:41:53.847Z,21.40
2022-12-09T06:44:23.736Z,22.63
2022-12-09T06:46:54.568Z,19.70
2022-12-09T06:49:22.197Z,20.97
2022-12-09T06:51:49.848Z,19.23
2022-12-09T06:54:17.351Z,57.13
2022-12-09T06:56:44.340Z,16.93
2022-12-09T06:59:11.990Z,19.03
2022-12-09T07:01:39.772Z,19.33
2022-12-09T07:04:07.422Z,15.57
2022-12-09T07:06:37.515Z,17.80
2022-12-09T07:09:08.139Z,20.93
2022-12-09T07:11:35.839Z,23.23
2022-12-09T07:14:03.706Z,26.70
2022-12-09T07:16:31.276Z,26.83
2022-12-09T07:18:58.564Z,25.77
2022-12-09T07:21:26.982Z,26.30
2022-12-09T07:23:54.116Z,24.33
2022-12-09T07:26:21.687Z,28.33
2022-12-09T07:28:51.188Z,24.37
2022-12-09T07:31:21.339Z,22.50
2022-12-09T07:33:49.140Z,24.70
2022-12-09T07:36:20.759Z,23.80
2022-12-09T07:38:48.447Z,27.83
2022-12-09T07:41:19.403Z,26.70
2022-12-09T07:43:48.070Z,28.50
2022-12-09T07:46:16.755Z,25.43
2022-12-09T07:48:44.241Z,31.20
2022-12-09T07:51:11.477Z,30.90
2022-12-09T07:53:39.319Z,40.63
2022-12-09T07:56:09.933Z,32.07
2022-12-09T07:58:37.720Z,34.33
2022-12-09T08:01:10.215Z,30.67
2022-12-09T08:03:37.606Z,29.20
2022-12-09T08:06:05.727Z,29.63
2022-12-09T08:08:33.867Z,29.07
2022-12-09T08:11:28.467Z,32.10
2022-12-09T08:14:04.335Z,31.83
2022-12-09T08:16:35.075Z,31.97
2022-12-09T08:19:02.778Z,29.90
2022-12-09T08:21:32.626Z,28.37
2022-12-09T08:24:03.237Z,35.00
2022-12-09T08:26:32.386Z,28.60
2022-12-09T08:29:00.156Z,23.97
2022-12-09T08:31:28.661Z,22.47
2022-12-09T08:33:56.821Z,23.90
2022-12-09T08:36:28.516Z,24.40
2022-12-09T08:38:58.806Z,44.90
2022-12-09T08:41:38.422Z,23.73
2022-12-09T08:44:08.132Z,23.87
2022-12-09T08:46:37.285Z,34.03
2022-12-09T08:49:06.288Z,21.83
2022-12-09T08:51:34.090Z,26.23
2022-12-09T08:54:02.343Z,25.47
2022-12-09T08:56:29.332Z,23.90
2022-12-09T08:58:57.145Z,24.80
2022-12-09T09:01:32.358Z,28.70
2022-12-09T09:04:06.169Z,32.23
2022-12-09T09:06:33.613Z,29.13
2022-12-09T09:09:01.128Z,22.27
2022-12-09T09:11:28.916Z,19.53
2022-12-09T09:13:56.160Z,20.70
2022-12-09T09:16:25.629Z,22.30
2022-12-09T09:18:53.633Z,21.67
2022-12-09T09:21:23.348Z,21.93
2022-12-09T09:23:51.013Z,20.63
2022-12-09T09:26:20.887Z,21.30
2022-12-09T09:28:48.769Z,28.73
2022-12-09T09:31:22.174Z,25.90
2022-12-09T09:33:54.026Z,26.20
2022-12-09T09:36:24.142Z,23.80
2022-12-09T09:38:54.210Z,23.07
2022-12-09T09:41:40.385Z,21.10
2022-12-09T09:44:46.283Z,26.17
2022-12-09T09:47:22.419Z,22.07
2022-12-09T09:49:58.779Z,21.33
2022-12-09T09:52:27.670Z,24.93
2022-12-09T09:54:54.851Z,23.57
2022-12-09T09:57:47.214Z,23.43
2022-12-09T10:00:33.430Z,20.27
2022-12-09T10:03:01.195Z,24.03
2022-12-09T10:05:52.184Z,22.47
2022-12-09T10:08:26.016Z,23.53
2022-12-09T10:11:09.069Z,23.47
2022-12-09T10:14:03.122Z,23.97
2022-12-09T10:16:57.824Z,25.93
2022-12-09T10:19:38.499Z,25.67
2022-12-09T10:22:43.113Z,25.43
2022-12-09T10:25:23.062Z,26.17
2022-12-09T10:27:59.714Z,23.67
2022-12-09T10:30:33.429Z,22.33
2022-12-09T10:33:03.870Z,22.03
2022-12-09T10:35:32.961Z,22.03
2022-12-09T10:38:28.284Z,20.30
2022-12-09T10:41:01.369Z,24.73
2022-12-09T10:43:37.443Z,19.90
2022-12-09T10:46:21.072Z,13.53
2022-12-09T10:48:48.891Z,19.07
2022-12-09T10:51:16.548Z,20.40
2022-12-09T10:54:06.953Z,31.03
2022-12-09T10:56:36.733Z,15.83
2022-12-09T10:59:26.501Z,14.40
2022-12-09T11:02:01.847Z,18.00
2022-12-09T11:04:37.341Z,14.13
2022-12-09T11:07:07.720Z,17.03
2022-12-09T11:09:40.597Z,15.33
2022-12-09T11:12:20.255Z,11.63
2022-12-09T11:14:56.220Z,14.10
2022-12-09T11:17:33.277Z,13.20
2022-12-09T11:20:07.481Z,11.37
2022-12-09T11:22:41.215Z,10.17
2022-12-09T11:25:24.090Z,10.30
2022-12-09T11:27:53.891Z,13.27
2022-12-09T11:30:24.735Z,11.27
2022-12-09T11:33:02.145Z,9.57
2022-12-09T11:35:38.229Z,11.67
2022-12-09T11:38:31.078Z,23.77
2022-12-09T11:41:13.451Z,12.93
2022-12-09T11:43:54.491Z,10.30
2022-12-09T11:46:32.357Z,15.57
2022-12-09T11:49:01.208Z,10.03
2022-12-09T11:51:36.268Z,11.20
2022-12-09T11:54:15.157Z,11.30
2022-12-09T11:56:43.138Z,10.60
2022-12-09T11:59:18.302Z,10.87
2022-12-09T12:02:18.681Z,12.67
2022-12-09T12:05:01.012Z,13.13
2022-12-09T12:07:49.826Z,12.20
2022-12-09T12:10:30.170Z,11.50
2022-12-09T12:13:26.151Z,9.27
2022-12-09T12:16:20.850Z,12.93
2022-12-09T12:18:54.054Z,10.17
2022-12-09T12:21:53.774Z,17.13
2022-12-09T12:24:38.606Z,11.37
2022-12-09T12:27:24.031Z,9.90
2022-12-09T12:29:57.600Z,10.07
2022-12-09T12:32:48.870Z,9.57
2022-12-09T12:36:01.910Z,14.47
2022-12-09T12:38:45.328Z,14.40
2022-12-09T12:41:34.974Z,13.23
2022-12-09T12:44:32.945Z,13.50
2022-12-09T12:47:35.354Z,14.93
2022-12-09T12:50:33.148Z,14.37
2022-12-09T12:53:18.784Z,12.93
2022-12-09T12:55:54.638Z,12.47
2022-12-09T12:58:40.466Z,16.93
2022-12-09T13:01:26.350Z,13.13
2022-12-09T13:04:37.677Z,10.67
2022-12-09T13:07:29.198Z,15.90
2022-12-09T13:10:14.142Z,15.90
2022-12-09T13:13:01.453Z,14.60
2022-12-09T13:15:32.128Z,15.00
2022-12-09T13:18:07.351Z,12.53
2022-12-09T13:20:43.840Z,17.93
2022-12-09T13:23:19.654Z,17.07
2022-12-09T13:26:29.086Z,15.90
2022-12-09T13:29:23.512Z,17.30
2022-12-09T13:32:20.801Z,20.40
2022-12-09T13:34:54.364Z,13.60
2022-12-09T13:37:54.816Z,15.80
2022-12-09T13:40:21.620Z,15.70
2022-12-09T13:42:56.698Z,19.93
2022-12-09T13:45:34.477Z,18.30
2022-12-09T13:48:06.009Z,19.80
2022-12-09T13:50:44.670Z,17.47
2022-12-09T13:53:34.130Z,17.33
2022-12-09T13:56:16.035Z,16.83
2022-12-09T13:59:20.732Z,17.67
2022-12-09T14:02:13.925Z,17.80
2022-12-09T14:05:05.675Z,18.90
2022-12-09T14:07:39.320Z,19.33
2022-12-09T14:10:07.116Z,16.83
2022-12-09T14:12:34.173Z,17.00
2022-12-09T14:15:20.864Z,14.60
2022-12-09T14:17:47.850Z,14.80
2022-12-09T14:20:22.210Z,18.10
2022-12-09T14:23:07.242Z,19.97
2022-12-09T14:25:34.123Z,18.37
2022-12-09T14:28:09.981Z,18.27
2022-12-09T14:30:52.223Z,22.70
2022-12-09T14:33:38.211Z,21.10
2022-12-09T14:36:07.015Z,26.87
2022-12-09T14:38:54.347Z,23.73
2022-12-09T14:41:40.445Z,24.87
2022-12-09T14:44:44.802Z,20.87
2022-12-09T14:47:28.355Z,21.37
2022-12-09T14:49:56.662Z,25.13
2022-12-09T14:52:28.970Z,23.50
2022-12-09T14:54:59.329Z,22.60
2022-12-09T14:57:44.802Z,22.13
2022-12-09T15:00:30.458Z,21.53
2022-12-09T15:03:30.719Z,25.53
2022-12-09T15:05:55.937Z,22.87
2022-12-09T15:08:40.417Z,26.67
2022-12-09T15:11:22.064Z,27.87
2022-12-09T15:13:52.077Z,28.57
2022-12-09T15:16:22.701Z,32.87
2022-12-09T15:18:51.058Z,30.37
2022-12-09T15:21:32.383Z,32.07
2022-12-09T15:24:00.562Z,34.73
2022-12-09T15:26:30.393Z,37.63
2022-12-09T15:28:59.381Z,40.23
2022-12-09T15:31:27.787Z,31.83
2022-12-09T15:33:58.263Z,29.73
2022-12-09T15:36:34.374Z,36.53
2022-12-09T15:39:07.395Z,33.37
2022-12-09T15:42:03.942Z,30.93
2022-12-09T15:44:42.398Z,35.23
2022-12-09T15:47:28.408Z,34.03
2022-12-09T15:50:08.466Z,33.20
2022-12-09T15:52:41.743Z,33.67
2022-12-09T15:55:13.850Z,39.03
2022-12-09T15:57:42.162Z,33.70
2022-12-09T16:00:10.446Z,32.03
2022-12-09T16:02:39.879Z,33.27
2022-12-09T16:05:09.901Z,38.60
2022-12-09T16:07:37.501Z,30.57
2022-12-09T16:10:17.809Z,30.17
2022-12-09T16:12:44.843Z,46.63
2022-12-09T16:15:33.602Z,43.70
2022-12-09T16:18:03.906Z,35.17
2022-12-09T16:20:42.516Z,40.83
2022-12-09T16:23:24.176Z,33.63
2022-12-09T16:25:51.973Z,40.83
2022-12-09T16:28:24.050Z,37.73
2022-12-09T16:30:56.713Z,44.43
2022-12-09T16:33:24.821Z,41.67
2022-12-09T16:35:59.555Z,37.80
2022-12-09T16:38:26.515Z,42.47
2022-12-09T16:40:53.613Z,42.07
2022-12-09T16:43:25.698Z,40.20
2022-12-09T16:45:58.938Z,44.00
2022-12-09T16:48:29.168Z,41.57
2022-12-09T16:51:14.362Z,34.93
2022-12-09T16:53:46.413Z,37.37
2022-12-09T16:56:25.534Z,49.80
2022-12-09T16:58:54.015Z,40.57
2022-12-09T17:01:24.495Z,41.13
2022-12-09T17:04:10.903Z,43.17
2022-12-09T17:06:37.813Z,33.53
2022-12-09T17:09:04.824Z,42.93
2022-12-09T17:11:31.848Z,48.07
2022-12-09T17:13:58.842Z,33.97
2022-12-09T17:16:26.857Z,41.83
2022-12-09T17:18:53.967Z,46.97
2022-12-09T17:21:21.251Z,37.77
2022-12-09T17:23:48.527Z,36.93
2022-12-09T17:26:17.867Z,36.80
2022-12-09T17:28:45.278Z,37.23
2022-12-09T17:31:21.599Z,46.80
2022-12-09T17:33:49.689Z,38.93
2022-12-09T17:36:17.739Z,40.20
2022-12-09T17:38:45.452Z,34.10
2022-12-09T17:41:15.931Z,44.43
2022-12-09T17:43:43.391Z,51.00
2022-12-09T17:46:12.291Z,42.83
2022-12-09T17:48:40.416Z,41.70
2022-12-09T17:51:12.725Z,45.90
2022-12-09T17:53:41.866Z,47.67
2022-12-09T17:56:14.284Z,44.13
2022-12-09T17:58:41.899Z,48.40
2022-12-09T18:01:18.298Z,49.23
2022-12-09T18:04:07.755Z,50.37
2022-12-09T18:06:34.665Z,46.03
2022-12-09T18:09:03.867Z,51.27
2022-12-09T18:11:30.719Z,55.67
2022-12-09T18:13:57.766Z,44.33
2022-12-09T18:16:24.654Z,46.67
2022-12-09T18:18:51.904Z,52.57
2022-12-09T18:21:22.148Z,50.47
2022-12-09T18:23:49.311Z,48.40
2022-12-09T18:26:18.557Z,87.33
2022-12-09T18:28:45.778Z,55.43
2022-12-09T18:31:16.116Z,53.27
2022-12-09T18:33:43.251Z,54.80
2022-12-09T18:36:16.946Z,53.97
2022-12-09T18:38:44.230Z,54.27
2022-12-09T18:41:22.848Z,49.43
2022-12-09T18:43:52.024Z,55.67
2022-12-09T18:46:26.273Z,56.43
2022-12-09T18:49:04.990Z,58.57
2022-12-09T18:51:33.004Z,52.53
2022-12-09T18:54:01.692Z,55.10
2022-12-09T18:56:29.603Z,52.53
2022-12-09T18:59:06.580Z,54.37
2022-12-09T19:01:39.060Z,60.43
2022-12-09T19:04:29.474Z,61.17
2022-12-09T19:06:58.960Z,56.57
2022-12-09T19:09:33.363Z,57.97
2022-12-09T19:12:23.136Z,62.43
2022-12-09T19:14:51.057Z,62.77
2022-12-09T19:17:18.866Z,59.07
2022-12-09T19:19:47.355Z,63.47
2022-12-09T19:22:14.660Z,73.67
2022-12-09T19:24:43.438Z,63.13
2022-12-09T19:27:11.034Z,66.67
2022-12-09T19:29:39.452Z,65.77
2022-12-09T19:32:23.637Z,68.27
2022-12-09T19:34:53.315Z,64.60
2022-12-09T19:37:20.495Z,74.17
2022-12-09T19:39:47.906Z,75.43
2022-12-09T19:42:14.910Z,73.67
2022-12-09T19:45:01.063Z,74.33
2022-12-09T19:47:28.778Z,75.23
2022-12-09T19:49:56.299Z,74.70
2022-12-09T19:52:24.372Z,70.83
2022-12-09T19:54:51.323Z,68.47
2022-12-09T19:57:18.160Z,70.47
2022-12-09T19:59:47.492Z,76.20
2022-12-09T20:02:15.130Z,72.80
2022-12-09T20:04:50.806Z,61.47
2022-12-09T20:07:18.965Z,65.43
2022-12-09T20:09:46.052Z,64.77
2022-12-09T20:12:13.296Z,69.30
2022-12-09T20:14:40.524Z,64.90
2022-12-09T20:17:07.965Z,63.13
2022-12-09T20:19:36.728Z,59.30
2022-12-09T20:22:04.229Z,60.40
2022-12-09T20:24:31.245Z,53.73
2022-12-09T20:26:58.306Z,62.70
2022-12-09T20:29:25.135Z,56.33
2022-12-09T20:31:53.861Z,60.97
2022-12-09T20:34:23.852Z,59.57
2022-12-09T20:36:51.122Z,57.57
2022-12-09T20:39:23.500Z,62.70
2022-12-09T20:41:53.126Z,72.28
2022-12-09T20:44:20.637Z,64.27
2022-12-09T20:46:52.677Z,61.50
2022-12-09T20:49:26.654Z,61.53
2022-12-09T20:51:54.711Z,65.80
2022-12-09T20:54:21.925Z,63.90
2022-12-09T20:56:49.129Z,61.80
2022-12-09T20:59:16.064Z,54.70
2022-12-09T21:01:43.735Z,63.13
2022-12-09T21:04:10.827Z,58.83
2022-12-09T21:06:39.634Z,60.33
2022-12-09T21:09:13.159Z,57.20
2022-12-09T21:11:40.731Z,66.27
2022-12-09T21:14:08.154Z,56.23
2022-12-09T21:16:39.275Z,60.50
2022-12-09T21:19:10.422Z,58.03
2022-12-09T21:21:40.601Z,64.47
2022-12-09T21:24:09.319Z,61.63
2022-12-09T21:26:36.668Z,61.97
2022-12-09T21:29:04.031Z,64.57
2022-12-09T21:31:34.484Z,62.70
2022-12-09T21:34:04.321Z,84.23
2022-12-09T21:36:37.155Z,63.83
2022-12-09T21:39:05.610Z,61.93
2022-12-09T21:41:34.452Z,55.73
2022-12-09T21:44:01.969Z,60.33
2022-12-09T21:46:31.885Z,60.23
2022-12-09T21:49:04.083Z,67.63
2022-12-09T21:51:32.277Z,60.03
2022-12-09T21:53:59.226Z,57.27
2022-12-09T21:56:30.345Z,68.30
2022-12-09T21:58:58.631Z,56.47
2022-12-09T22:01:34.077Z,64.40
2022-12-09T22:04:02.580Z,65.03
2022-12-09T22:06:30.632Z,52.67
2022-12-09T22:09:01.424Z,63.97
2022-12-09T22:11:31.991Z,55.73
2022-12-09T22:14:00.267Z,61.67
2022-12-09T22:16:31.489Z,63.77
2022-12-09T22:19:00.276Z,65.03
2022-12-09T22:21:29.748Z,61.53
2022-12-09T22:24:00.582Z,57.60
2022-12-09T22:26:27.990Z,58.70
2022-12-09T22:28:55.462Z,62.73
2022-12-09T22:31:23.802Z,64.73
2022-12-09T22:33:52.663Z,62.27
2022-12-09T22:36:20.562Z,57.97
2022-12-09T22:38:48.528Z,53.97
2022-12-09T22:41:19.904Z,64.00
2022-12-09T22:43:48.910Z,61.00
2022-12-09T22:46:26.668Z,61.80
2022-12-09T22:48:54.354Z,58.40
2022-12-09T22:51:24.334Z,63.40
2022-12-09T22:53:53.061Z,57.40
2022-12-09T22:56:21.178Z,63.10
2022-12-09T22:58:48.441Z,57.70
2022-12-09T23:01:18.135Z,57.90
2022-12-09T23:03:45.463Z,54.97
2022-12-09T23:06:13.377Z,61.80
2022-12-09T23:08:42.221Z,61.63
2022-12-09T23:11:15.387Z,55.23
2022-12-09T23:13:43.012Z,57.00
2022-12-09T23:16:13.984Z,58.73
2022-12-09T23:18:41.145Z,61.70
2022-12-09T23:21:14.085Z,58.60
2022-12-09T23:23:41.436Z,66.20
2022-12-09T23:26:11.306Z,64.13
2022-12-09T23:28:42.573Z,64.80
2022-12-09T23:31:11.692Z,63.63
2022-12-09T23:33:39.880Z,62.37
2022-12-09T23:36:07.834Z,70.33
2022-12-09T23:38:35.367Z,64.77
2022-12-09T23:41:02.489Z,67.73
2022-12-09T23:43:36.437Z,62.77
2022-12-09T23:46:10.021Z,66.43
2022-12-09T23:48:42.037Z,62.67
2022-12-09T23:51:11.820Z,63.57
2022-12-09T23:53:39.888Z,67.23
2022-12-09T23:56:07.790Z,60.07
2022-12-09T23:58:34.713Z,66.97
